createdAt,value
2016-10-07T00:00:43.815Z,1009.8
2016-10-07T00:01:43.743Z,1009.77
2016-10-07T00:02:44.530Z,1009.8
2016-10-07T00:03:44.154Z,1009.77
2016-10-07T00:04:44.044Z,1009.75
2016-10-07T00:05:43.820Z,1009.76
2016-10-07T00:06:44.188Z,1009.77
2016-10-07T00:07:43.763Z,1009.71
2016-10-07T00:08:43.803Z,1009.66
2016-10-07T00:09:43.959Z,1009.67
2016-10-07T00:10:44.393Z,1009.67
2016-10-07T00:11:44.021Z,1009.65
2016-10-07T00:12:44.055Z,1009.67
2016-10-07T00:13:44.081Z,1009.71
2016-10-07T00:14:44.103Z,1009.64
2016-10-07T00:15:44.165Z,1009.66
2016-10-07T00:16:43.905Z,1009.67
2016-10-07T00:17:44.008Z,1009.69
2016-10-07T00:18:44.062Z,1009.76
2016-10-07T00:19:44.093Z,1009.76
2016-10-07T00:20:44.176Z,1009.76
2016-10-07T00:21:43.953Z,1009.75
2016-10-07T00:22:44.116Z,1009.74
2016-10-07T00:23:44.141Z,1009.74
2016-10-07T00:24:44.282Z,1009.76
2016-10-07T00:25:44.039Z,1009.7
2016-10-07T00:26:44.169Z,1009.76
2016-10-07T00:27:44.304Z,1009.74
2016-10-07T00:28:44.228Z,1009.69
2016-10-07T00:29:44.408Z,1009.71
2016-10-07T00:30:44.464Z,1009.69
2016-10-07T00:31:44.579Z,1009.68
2016-10-07T00:32:44.462Z,1009.67
2016-10-07T00:33:44.776Z,1009.71
2016-10-07T00:34:44.803Z,1009.7
2016-10-07T00:35:44.508Z,1009.67
2016-10-07T00:36:44.545Z,1009.7
2016-10-07T00:37:44.772Z,1009.72
2016-10-07T00:38:44.357Z,1009.69
2016-10-07T00:39:44.642Z,1009.69
2016-10-07T00:40:44.511Z,1009.7
2016-10-07T00:41:44.598Z,1009.69
2016-10-07T00:42:44.713Z,1009.68
2016-10-07T00:43:44.628Z,1009.68
2016-10-07T00:44:44.702Z,1009.7
2016-10-07T00:45:44.885Z,1009.69
2016-10-07T00:46:44.878Z,1009.66
2016-10-07T00:47:44.875Z,1009.7
2016-10-07T00:48:44.615Z,1009.68
2016-10-07T00:49:44.919Z,1009.67
2016-10-07T00:50:44.769Z,1009.62
2016-10-07T00:51:44.950Z,1009.61
2016-10-07T00:52:44.820Z,1009.61
2016-10-07T00:53:45.004Z,1009.62
2016-10-07T00:54:44.964Z,1009.62
2016-10-07T00:55:44.873Z,1009.66
2016-10-07T00:56:44.787Z,1009.62
2016-10-07T00:57:44.774Z,1009.61
2016-10-07T00:58:44.676Z,1009.62
2016-10-07T00:59:45.291Z,1009.59
2016-10-07T01:00:45.093Z,1009.6
2016-10-07T01:01:44.823Z,1009.58
2016-10-07T01:02:45.020Z,1009.57
2016-10-07T01:03:45.008Z,1009.53
2016-10-07T01:04:45.021Z,1009.51
2016-10-07T01:05:44.909Z,1009.52
2016-10-07T01:06:45.157Z,1009.53
2016-10-07T01:07:45.123Z,1009.47
2016-10-07T01:08:44.925Z,1009.48
2016-10-07T01:09:45.313Z,1009.51
2016-10-07T01:10:45.057Z,1009.51
2016-10-07T01:11:45.313Z,1009.47
2016-10-07T01:12:45.404Z,1009.5
2016-10-07T01:13:45.128Z,1009.46
2016-10-07T01:14:44.981Z,1009.43
2016-10-07T01:15:45.317Z,1009.43
2016-10-07T01:16:45.143Z,1009.42
2016-10-07T01:17:45.187Z,1009.43
2016-10-07T01:18:45.335Z,1009.44
2016-10-07T01:19:45.485Z,1009.46
2016-10-07T01:20:45.617Z,1009.45
2016-10-07T01:21:45.488Z,1009.43
2016-10-07T01:22:45.579Z,1009.45
2016-10-07T01:23:45.811Z,1009.43
2016-10-07T01:24:45.354Z,1009.42
2016-10-07T01:25:45.227Z,1009.43
2016-10-07T01:26:45.262Z,1009.44
2016-10-07T01:27:45.804Z,1009.45
2016-10-07T01:28:45.767Z,1009.4
2016-10-07T01:29:45.567Z,1009.41
2016-10-07T01:30:45.566Z,1009.38
2016-10-07T01:31:45.639Z,1009.36
2016-10-07T01:32:45.486Z,1009.34
2016-10-07T01:33:45.346Z,1009.32
2016-10-07T01:34:46.271Z,1009.29
2016-10-07T01:35:45.838Z,1009.28
2016-10-07T01:36:45.530Z,1009.28
2016-10-07T01:37:45.615Z,1009.27
2016-10-07T01:38:45.341Z,1009.25
2016-10-07T01:39:45.614Z,1009.26
2016-10-07T01:40:45.657Z,1009.25
2016-10-07T01:41:45.774Z,1009.25
2016-10-07T01:42:45.830Z,1009.21
2016-10-07T01:43:45.677Z,1009.25
2016-10-07T01:44:45.692Z,1009.19
2016-10-07T01:45:45.658Z,1009.22
2016-10-07T01:46:45.913Z,1009.24
2016-10-07T01:47:45.830Z,1009.21
2016-10-07T01:48:46.063Z,1009.19
2016-10-07T01:49:46.537Z,1009.21
2016-10-07T01:50:46.050Z,1009.26
2016-10-07T01:51:46.234Z,1009.22
2016-10-07T01:52:45.952Z,1009.21
2016-10-07T01:53:45.726Z,1009.19
2016-10-07T01:54:45.777Z,1009.21
2016-10-07T01:55:45.746Z,1009.19
2016-10-07T01:56:46.008Z,1009.2
2016-10-07T01:57:46.307Z,1009.15
2016-10-07T01:58:46.148Z,1009.19
2016-10-07T01:59:46.108Z,1009.2
2016-10-07T02:00:45.999Z,1009.17
2016-10-07T02:01:45.849Z,1009.17
2016-10-07T02:02:46.015Z,1009.18
2016-10-07T02:03:45.890Z,1009.18
2016-10-07T02:04:46.118Z,1009.11
2016-10-07T02:05:46.208Z,1009.14
2016-10-07T02:06:46.181Z,1009.1
2016-10-07T02:07:46.015Z,1009.08
2016-10-07T02:08:46.911Z,1009.11
2016-10-07T02:09:45.968Z,1009.06
2016-10-07T02:10:46.115Z,1009.1
2016-10-07T02:11:46.383Z,1009.1
2016-10-07T02:12:46.286Z,1009.09
2016-10-07T02:13:46.366Z,1009.09
2016-10-07T02:14:46.350Z,1009.12
2016-10-07T02:15:46.358Z,1009.07
2016-10-07T02:16:46.675Z,1009.09
2016-10-07T02:17:46.899Z,1009.14
2016-10-07T02:18:46.487Z,1009.11
2016-10-07T02:19:46.811Z,1009.12
2016-10-07T02:20:46.861Z,1009.11
2016-10-07T02:21:46.498Z,1009.13
2016-10-07T02:22:46.728Z,1009.09
2016-10-07T02:23:46.542Z,1009.11
2016-10-07T02:24:47.163Z,1009.09
2016-10-07T02:25:46.567Z,1009.12
2016-10-07T02:26:46.641Z,1009.15
2016-10-07T02:27:47.004Z,1009.1
2016-10-07T02:28:47.209Z,1009.13
2016-10-07T02:29:46.403Z,1009.1
2016-10-07T02:30:46.512Z,1009.09
2016-10-07T02:31:46.840Z,1009.06
2016-10-07T02:32:46.452Z,1009.07
2016-10-07T02:33:46.730Z,1009.1
2016-10-07T02:34:46.754Z,1009.06
2016-10-07T02:35:46.744Z,1009.05
2016-10-07T02:36:46.592Z,1009.02
2016-10-07T02:37:46.646Z,1009.03
2016-10-07T02:38:46.683Z,1009.02
2016-10-07T02:39:46.755Z,1009
2016-10-07T02:40:46.862Z,1009.02
2016-10-07T02:41:49.791Z,1009.06
2016-10-07T02:42:46.816Z,1009.01
2016-10-07T02:43:47.001Z,1009.06
2016-10-07T02:44:47.284Z,1009.04
2016-10-07T02:45:46.938Z,1008.98
2016-10-07T02:46:47.109Z,1009.05
2016-10-07T02:47:46.757Z,1009.01
2016-10-07T02:48:47.057Z,1009.03
2016-10-07T02:49:46.939Z,1009.06
2016-10-07T02:50:47.064Z,1009.06
2016-10-07T02:51:47.552Z,1009.06
2016-10-07T02:52:46.886Z,1009.03
2016-10-07T02:53:47.141Z,1009.04
2016-10-07T02:54:47.151Z,1009.07
2016-10-07T02:55:47.144Z,1009.07
2016-10-07T02:56:46.987Z,1009.08
2016-10-07T02:57:47.260Z,1009.04
2016-10-07T02:58:47.464Z,1009.05
2016-10-07T02:59:47.252Z,1009.06
2016-10-07T03:00:47.178Z,1009.01
2016-10-07T03:01:47.073Z,1009.01
2016-10-07T03:02:47.221Z,1008.99
2016-10-07T03:03:47.329Z,1009
2016-10-07T03:04:47.178Z,1009.03
2016-10-07T03:05:47.011Z,1008.98
2016-10-07T03:06:47.321Z,1009.02
2016-10-07T03:07:47.315Z,1009
2016-10-07T03:08:47.332Z,1008.99
2016-10-07T03:09:47.405Z,1009
2016-10-07T03:10:47.315Z,1009.03
2016-10-07T03:11:47.135Z,1008.99
2016-10-07T03:12:47.358Z,1009.03
2016-10-07T03:13:47.348Z,1009
2016-10-07T03:14:47.434Z,1009.03
2016-10-07T03:15:47.572Z,1009.03
2016-10-07T03:16:47.453Z,1009.03
2016-10-07T03:17:47.497Z,1009.05
2016-10-07T03:18:47.559Z,1009.04
2016-10-07T03:19:47.980Z,1009.08
2016-10-07T03:20:47.443Z,1009.09
2016-10-07T03:21:48.349Z,1009.07
2016-10-07T03:22:47.532Z,1009.1
2016-10-07T03:23:47.423Z,1009.08
2016-10-07T03:24:47.760Z,1009.07
2016-10-07T03:25:47.669Z,1009.07
2016-10-07T03:26:47.819Z,1009.1
2016-10-07T03:27:47.675Z,1009.1
2016-10-07T03:28:47.870Z,1009.13
2016-10-07T03:29:47.450Z,1009.11
2016-10-07T03:30:48.120Z,1009.12
2016-10-07T03:31:47.633Z,1009.08
2016-10-07T03:32:48.011Z,1009.13
2016-10-07T03:33:47.805Z,1009.08
2016-10-07T03:34:47.839Z,1009.09
2016-10-07T03:35:48.109Z,1009.09
2016-10-07T03:36:47.955Z,1009.07
2016-10-07T03:37:47.819Z,1009.07
2016-10-07T03:38:47.809Z,1009.08
2016-10-07T03:39:47.676Z,1009.05
2016-10-07T03:40:48.072Z,1009.07
2016-10-07T03:41:48.252Z,1009.06
2016-10-07T03:42:48.237Z,1009.06
2016-10-07T03:43:47.813Z,1009.07
2016-10-07T03:44:47.966Z,1009.08
2016-10-07T03:45:47.996Z,1009.05
2016-10-07T03:46:47.810Z,1009.04
2016-10-07T03:47:48.345Z,1009.06
2016-10-07T03:48:47.882Z,1009.06
2016-10-07T03:49:47.944Z,1009.04
2016-10-07T03:50:47.979Z,1009.06
2016-10-07T03:51:47.931Z,1009.07
2016-10-07T03:52:48.577Z,1009.03
2016-10-07T03:53:48.028Z,1009.05
2016-10-07T03:54:48.117Z,1009.06
2016-10-07T03:55:48.615Z,1009.07
2016-10-07T03:56:48.010Z,1009.09
2016-10-07T03:57:48.511Z,1009.1
2016-10-07T03:58:48.409Z,1009.07
2016-10-07T03:59:48.408Z,1009.09
2016-10-07T04:00:48.435Z,1009.07
2016-10-07T04:01:48.150Z,1009.09
2016-10-07T04:02:48.596Z,1009.07
2016-10-07T04:03:48.116Z,1009.06
2016-10-07T04:05:48.603Z,1009.01
2016-10-07T04:06:48.230Z,1009.02
2016-10-07T04:07:48.520Z,1009.02
2016-10-07T04:08:48.746Z,1009.01
2016-10-07T04:09:48.413Z,1009.02
2016-10-07T04:10:48.630Z,1009.02
2016-10-07T04:11:48.859Z,1009.01
2016-10-07T04:12:48.796Z,1009
2016-10-07T04:13:48.699Z,1008.98
2016-10-07T04:14:49.341Z,1009.06
2016-10-07T04:15:48.549Z,1009.01
2016-10-07T04:16:48.706Z,1009.04
2016-10-07T04:17:48.855Z,1009
2016-10-07T04:18:49.445Z,1009.01
2016-10-07T04:19:48.830Z,1008.97
2016-10-07T04:20:48.540Z,1009.01
2016-10-07T04:21:48.795Z,1009
2016-10-07T04:22:49.221Z,1009.02
2016-10-07T04:23:49.336Z,1009
2016-10-07T04:24:48.703Z,1009
2016-10-07T04:25:48.709Z,1009.02
2016-10-07T04:26:49.060Z,1009.03
2016-10-07T04:27:48.567Z,1009.01
2016-10-07T04:28:48.576Z,1008.98
2016-10-07T04:29:48.956Z,1009.01
2016-10-07T04:30:49.309Z,1009.03
2016-10-07T04:31:49.038Z,1009.03
2016-10-07T04:32:48.799Z,1009.03
2016-10-07T04:33:48.888Z,1008.99
2016-10-07T04:34:48.713Z,1009.04
2016-10-07T04:35:48.912Z,1009.06
2016-10-07T04:36:48.959Z,1009.05
2016-10-07T04:37:49.297Z,1009.03
2016-10-07T04:38:49.065Z,1009.08
2016-10-07T04:39:49.160Z,1009.06
2016-10-07T04:40:48.895Z,1009.1
2016-10-07T04:41:49.017Z,1009.07
2016-10-07T04:42:50.089Z,1009.06
2016-10-07T04:43:49.314Z,1009.07
2016-10-07T04:44:48.983Z,1009.07
2016-10-07T04:45:49.146Z,1009.06
2016-10-07T04:46:49.711Z,1009.08
2016-10-07T04:47:49.292Z,1009.07
2016-10-07T04:48:48.920Z,1009.07
2016-10-07T04:49:49.039Z,1009.06
2016-10-07T04:50:49.085Z,1009.04
2016-10-07T04:51:50.060Z,1009.05
2016-10-07T04:52:49.154Z,1009.06
2016-10-07T04:53:49.240Z,1009.09
2016-10-07T04:54:49.015Z,1009.07
2016-10-07T04:55:49.325Z,1009.02
2016-10-07T04:56:49.704Z,1009.05
2016-10-07T04:57:49.326Z,1009.09
2016-10-07T04:58:49.252Z,1009.09
2016-10-07T04:59:49.474Z,1009.08
2016-10-07T05:00:49.141Z,1009.13
2016-10-07T05:01:50.096Z,1009.12
2016-10-07T05:02:49.730Z,1009.14
2016-10-07T05:03:49.352Z,1009.16
2016-10-07T05:04:49.277Z,1009.12
2016-10-07T05:05:49.281Z,1009.13
2016-10-07T05:06:49.342Z,1009.09
2016-10-07T05:07:50.121Z,1009.08
2016-10-07T05:08:49.581Z,1009.1
2016-10-07T05:09:49.465Z,1009.08
2016-10-07T05:10:49.530Z,1009.07
2016-10-07T05:11:49.349Z,1009.11
2016-10-07T05:12:49.483Z,1009.08
2016-10-07T05:13:49.811Z,1009.1
2016-10-07T05:14:49.694Z,1009.12
2016-10-07T05:15:49.499Z,1009.14
2016-10-07T05:16:49.549Z,1009.11
2016-10-07T05:17:49.755Z,1009.11
2016-10-07T05:18:49.719Z,1009.1
2016-10-07T05:19:50.105Z,1009.08
2016-10-07T05:20:49.754Z,1009.09
2016-10-07T05:21:50.028Z,1009.07
2016-10-07T05:22:50.261Z,1009.11
2016-10-07T05:23:50.102Z,1009.12
2016-10-07T05:24:49.692Z,1009.13
2016-10-07T05:25:49.827Z,1009.09
2016-10-07T05:26:49.507Z,1009.09
2016-10-07T05:27:49.519Z,1009.1
2016-10-07T05:28:49.533Z,1009.07
2016-10-07T05:29:50.183Z,1009.09
2016-10-07T05:30:49.654Z,1009.12
2016-10-07T05:31:49.888Z,1009.12
2016-10-07T05:32:49.719Z,1009.13
2016-10-07T05:33:49.853Z,1009.14
2016-10-07T05:34:49.645Z,1009.14
2016-10-07T05:35:50.401Z,1009.14
2016-10-07T05:36:50.713Z,1009.14
2016-10-07T05:37:50.552Z,1009.16
2016-10-07T05:38:50.782Z,1009.19
2016-10-07T05:39:51.005Z,1009.15
2016-10-07T05:40:50.197Z,1009.21
2016-10-07T05:41:50.326Z,1009.17
2016-10-07T05:42:50.734Z,1009.19
2016-10-07T05:43:50.673Z,1009.2
2016-10-07T05:44:49.980Z,1009.2
2016-10-07T05:45:50.184Z,1009.18
2016-10-07T05:46:50.260Z,1009.24
2016-10-07T05:47:50.448Z,1009.22
2016-10-07T05:48:50.124Z,1009.24
2016-10-07T05:49:50.878Z,1009.23
2016-10-07T05:50:50.272Z,1009.23
2016-10-07T05:51:50.522Z,1009.23
2016-10-07T05:52:50.197Z,1009.26
2016-10-07T05:53:50.228Z,1009.23
2016-10-07T05:54:50.471Z,1009.22
2016-10-07T05:55:50.488Z,1009.2
2016-10-07T05:56:50.531Z,1009.18
2016-10-07T05:57:50.411Z,1009.22
2016-10-07T05:58:50.569Z,1009.2
2016-10-07T05:59:50.860Z,1009.21
2016-10-07T06:00:50.775Z,1009.22
2016-10-07T06:01:50.458Z,1009.21
2016-10-07T06:02:51.421Z,1009.24
2016-10-07T06:03:50.695Z,1009.23
2016-10-07T06:04:50.432Z,1009.23
2016-10-07T06:05:50.511Z,1009.26
2016-10-07T06:06:50.594Z,1009.23
2016-10-07T06:07:50.490Z,1009.27
2016-10-07T06:08:50.541Z,1009.27
2016-10-07T06:09:51.267Z,1009.25
2016-10-07T06:10:50.748Z,1009.28
2016-10-07T06:11:50.879Z,1009.31
2016-10-07T06:12:50.892Z,1009.31
2016-10-07T06:13:50.821Z,1009.3
2016-10-07T06:14:50.634Z,1009.34
2016-10-07T06:15:50.929Z,1009.31
2016-10-07T06:16:50.499Z,1009.31
2016-10-07T06:17:50.510Z,1009.31
2016-10-07T06:18:50.833Z,1009.29
2016-10-07T06:19:50.850Z,1009.3
2016-10-07T06:20:50.661Z,1009.31
2016-10-07T06:21:51.093Z,1009.36
2016-10-07T06:22:51.312Z,1009.37
2016-10-07T06:23:51.460Z,1009.36
2016-10-07T06:24:51.501Z,1009.37
2016-10-07T06:25:51.057Z,1009.37
2016-10-07T06:26:50.853Z,1009.42
2016-10-07T06:27:50.828Z,1009.4
2016-10-07T06:28:51.130Z,1009.41
2016-10-07T06:29:51.025Z,1009.42
2016-10-07T06:30:51.194Z,1009.36
2016-10-07T06:31:50.961Z,1009.41
2016-10-07T06:32:51.179Z,1009.42
2016-10-07T06:33:51.132Z,1009.38
2016-10-07T06:34:51.452Z,1009.43
2016-10-07T06:35:51.464Z,1009.41
2016-10-07T06:36:51.691Z,1009.42
2016-10-07T06:37:51.170Z,1009.42
2016-10-07T06:38:50.955Z,1009.39
2016-10-07T06:39:51.351Z,1009.44
2016-10-07T06:40:51.051Z,1009.43
2016-10-07T06:41:51.147Z,1009.39
2016-10-07T06:42:51.289Z,1009.38
2016-10-07T06:43:51.203Z,1009.37
2016-10-07T06:44:51.000Z,1009.36
2016-10-07T06:45:51.194Z,1009.41
2016-10-07T06:46:51.355Z,1009.35
2016-10-07T06:47:52.024Z,1009.41
2016-10-07T06:48:52.060Z,1009.42
2016-10-07T06:49:51.458Z,1009.41
2016-10-07T06:50:51.640Z,1009.42
2016-10-07T06:51:51.224Z,1009.38
2016-10-07T06:52:51.606Z,1009.38
2016-10-07T06:53:51.550Z,1009.37
2016-10-07T06:54:51.195Z,1009.3
2016-10-07T06:55:51.473Z,1009.33
2016-10-07T06:56:51.749Z,1009.33
2016-10-07T06:57:51.472Z,1009.34
2016-10-07T06:58:51.715Z,1009.37
2016-10-07T06:59:51.985Z,1009.34
2016-10-07T07:00:51.472Z,1009.37
2016-10-07T07:01:51.761Z,1009.35
2016-10-07T07:02:51.652Z,1009.36
2016-10-07T07:03:51.697Z,1009.36
2016-10-07T07:04:51.992Z,1009.35
2016-10-07T07:05:51.989Z,1009.42
2016-10-07T07:06:51.628Z,1009.46
2016-10-07T07:07:51.836Z,1009.45
2016-10-07T07:08:52.092Z,1009.46
2016-10-07T07:09:51.614Z,1009.47
2016-10-07T07:10:51.764Z,1009.5
2016-10-07T07:11:51.757Z,1009.53
2016-10-07T07:12:51.934Z,1009.51
2016-10-07T07:13:52.268Z,1009.47
2016-10-07T07:14:51.911Z,1009.48
2016-10-07T07:15:51.827Z,1009.53
2016-10-07T07:16:51.756Z,1009.53
2016-10-07T07:17:52.065Z,1009.47
2016-10-07T07:18:52.008Z,1009.51
2016-10-07T07:19:51.889Z,1009.5
2016-10-07T07:20:51.916Z,1009.54
2016-10-07T07:21:51.995Z,1009.53
2016-10-07T07:22:52.000Z,1009.56
2016-10-07T07:23:51.849Z,1009.54
2016-10-07T07:24:52.081Z,1009.52
2016-10-07T07:25:51.818Z,1009.56
2016-10-07T07:26:51.924Z,1009.58
2016-10-07T07:27:52.277Z,1009.55
2016-10-07T07:28:52.281Z,1009.52
2016-10-07T07:29:52.033Z,1009.53
2016-10-07T07:30:52.366Z,1009.56
2016-10-07T07:31:51.982Z,1009.57
2016-10-07T07:32:52.257Z,1009.55
2016-10-07T07:33:52.460Z,1009.57
2016-10-07T07:34:52.591Z,1009.58
2016-10-07T07:35:52.566Z,1009.62
2016-10-07T07:36:52.132Z,1009.6
2016-10-07T07:37:52.972Z,1009.62
2016-10-07T07:38:52.261Z,1009.67
2016-10-07T07:39:52.739Z,1009.63
2016-10-07T07:40:52.238Z,1009.64
2016-10-07T07:41:52.107Z,1009.68
2016-10-07T07:42:52.265Z,1009.71
2016-10-07T07:43:52.467Z,1009.69
2016-10-07T07:44:52.571Z,1009.73
2016-10-07T07:45:52.437Z,1009.7
2016-10-07T07:46:52.327Z,1009.71
2016-10-07T07:47:52.702Z,1009.72
2016-10-07T07:48:52.771Z,1009.74
2016-10-07T07:49:52.499Z,1009.72
2016-10-07T07:50:53.274Z,1009.73
2016-10-07T07:51:52.599Z,1009.68
2016-10-07T07:52:52.466Z,1009.65
2016-10-07T07:53:52.747Z,1009.69
2016-10-07T07:54:53.010Z,1009.7
2016-10-07T07:55:53.036Z,1009.68
2016-10-07T07:56:52.530Z,1009.7
2016-10-07T07:57:52.482Z,1009.73
2016-10-07T07:58:53.287Z,1009.79
2016-10-07T07:59:52.970Z,1009.81
2016-10-07T08:00:52.903Z,1009.83
2016-10-07T08:01:52.674Z,1009.77
2016-10-07T08:02:52.536Z,1009.77
2016-10-07T08:03:52.887Z,1009.76
2016-10-07T08:04:52.625Z,1009.7
2016-10-07T08:05:52.737Z,1009.71
2016-10-07T08:06:52.616Z,1009.68
2016-10-07T08:07:52.635Z,1009.7
2016-10-07T08:08:52.800Z,1009.73
2016-10-07T08:09:53.154Z,1009.71
2016-10-07T08:10:52.926Z,1009.74
2016-10-07T08:11:53.086Z,1009.73
2016-10-07T08:12:52.871Z,1009.73
2016-10-07T08:13:53.037Z,1009.75
2016-10-07T08:14:53.364Z,1009.74
2016-10-07T08:15:52.910Z,1009.76
2016-10-07T08:16:53.102Z,1009.75
2016-10-07T08:17:53.125Z,1009.79
2016-10-07T08:18:53.320Z,1009.78
2016-10-07T08:19:52.986Z,1009.82
2016-10-07T08:20:53.544Z,1009.81
2016-10-07T08:21:52.863Z,1009.83
2016-10-07T08:22:53.263Z,1009.81
2016-10-07T08:23:53.202Z,1009.87
2016-10-07T08:24:53.219Z,1009.91
2016-10-07T08:25:53.046Z,1009.95
2016-10-07T08:26:53.290Z,1009.95
2016-10-07T08:27:53.340Z,1009.93
2016-10-07T08:28:53.217Z,1009.93
2016-10-07T08:29:53.201Z,1009.91
2016-10-07T08:30:53.380Z,1009.91
2016-10-07T08:31:53.050Z,1009.98
2016-10-07T08:32:53.314Z,1009.93
2016-10-07T08:33:53.066Z,1009.95
2016-10-07T08:34:53.906Z,1009.94
2016-10-07T08:35:53.415Z,1009.95
2016-10-07T08:36:53.249Z,1009.96
2016-10-07T08:37:53.426Z,1009.95
2016-10-07T08:38:53.480Z,1009.98
2016-10-07T08:39:53.445Z,1009.98
2016-10-07T08:40:53.487Z,1009.98
2016-10-07T08:41:53.620Z,1009.99
2016-10-07T08:42:53.370Z,1009.97
2016-10-07T08:43:54.049Z,1009.97
2016-10-07T08:44:53.562Z,1009.97
2016-10-07T08:45:53.799Z,1009.95
2016-10-07T08:46:53.507Z,1009.96
2016-10-07T08:47:53.600Z,1009.97
2016-10-07T08:48:53.999Z,1009.94
2016-10-07T08:49:53.684Z,1009.98
2016-10-07T08:50:53.583Z,1009.99
2016-10-07T08:51:53.902Z,1010
2016-10-07T08:52:53.784Z,1009.99
2016-10-07T08:53:53.534Z,1010
2016-10-07T08:54:53.765Z,1010.05
2016-10-07T08:55:53.822Z,1010.03
2016-10-07T08:56:53.568Z,1010.07
2016-10-07T08:57:53.833Z,1010.09
2016-10-07T08:58:53.948Z,1010.06
2016-10-07T08:59:53.772Z,1010.04
2016-10-07T09:00:53.665Z,1010.04
2016-10-07T09:01:54.045Z,1010.04
2016-10-07T09:02:53.793Z,1010.02
2016-10-07T09:03:54.137Z,1009.97
2016-10-07T09:04:53.834Z,1009.96
2016-10-07T09:05:53.755Z,1009.98
2016-10-07T09:06:53.990Z,1009.98
2016-10-07T09:07:54.206Z,1010.01
2016-10-07T09:08:53.942Z,1010.02
2016-10-07T09:09:54.455Z,1010
2016-10-07T09:10:54.504Z,1010.01
2016-10-07T09:11:54.313Z,1010.01
2016-10-07T09:12:54.151Z,1009.95
2016-10-07T09:13:54.151Z,1009.99
2016-10-07T09:14:54.455Z,1010
2016-10-07T09:15:54.486Z,1010.06
2016-10-07T09:16:54.267Z,1010.08
2016-10-07T09:17:54.269Z,1010.06
2016-10-07T09:18:54.107Z,1010.08
2016-10-07T09:19:54.112Z,1010.09
2016-10-07T09:20:54.366Z,1010.05
2016-10-07T09:21:54.426Z,1010.06
2016-10-07T09:22:54.193Z,1010.06
2016-10-07T09:23:54.312Z,1010.07
2016-10-07T09:24:54.481Z,1010.06
2016-10-07T09:25:54.124Z,1010.05
2016-10-07T09:26:54.411Z,1010.06
2016-10-07T09:27:54.339Z,1010.05
2016-10-07T09:28:54.369Z,1010.08
2016-10-07T09:29:54.483Z,1010.06
2016-10-07T09:30:54.435Z,1010.08
2016-10-07T09:31:54.637Z,1010.07
2016-10-07T09:32:54.442Z,1010.09
2016-10-07T09:33:54.425Z,1010.09
2016-10-07T09:34:54.404Z,1010.11
2016-10-07T09:35:54.656Z,1010.1
2016-10-07T09:36:54.490Z,1010.01
2016-10-07T09:37:54.585Z,1010.08
2016-10-07T09:38:54.610Z,1010.06
2016-10-07T09:39:54.529Z,1010.07
2016-10-07T09:40:54.433Z,1010.06
2016-10-07T09:41:54.642Z,1010.1
2016-10-07T09:42:54.562Z,1010.14
2016-10-07T09:43:54.995Z,1010.11
2016-10-07T09:44:54.887Z,1010.14
2016-10-07T09:45:54.944Z,1010.17
2016-10-07T09:46:54.776Z,1010.14
2016-10-07T09:47:54.537Z,1010.14
2016-10-07T09:48:54.811Z,1010.18
2016-10-07T09:49:55.016Z,1010.19
2016-10-07T09:50:55.266Z,1010.18
2016-10-07T09:51:54.893Z,1010.19
2016-10-07T09:52:54.773Z,1010.16
2016-10-07T09:53:54.675Z,1010.15
2016-10-07T09:54:55.108Z,1010.12
2016-10-07T09:55:54.934Z,1010.11
2016-10-07T09:56:54.923Z,1010.07
2016-10-07T09:57:54.960Z,1010.11
2016-10-07T09:58:55.119Z,1010.13
2016-10-07T09:59:55.027Z,1010.1
2016-10-07T10:00:55.005Z,1010.08
2016-10-07T10:01:55.616Z,1010.04
2016-10-07T10:02:55.193Z,1010.03
2016-10-07T10:03:55.349Z,1010.06
2016-10-07T10:04:55.017Z,1010.09
2016-10-07T10:05:55.291Z,1010.05
2016-10-07T10:06:55.405Z,1010.14
2016-10-07T10:07:55.288Z,1010.08
2016-10-07T10:08:55.471Z,1010.09
2016-10-07T10:09:55.251Z,1010.1
2016-10-07T10:10:55.260Z,1010.13
2016-10-07T10:11:54.953Z,1010.15
2016-10-07T10:12:55.257Z,1010.2
2016-10-07T10:13:55.586Z,1010.23
2016-10-07T10:14:55.398Z,1010.25
2016-10-07T10:15:55.618Z,1010.21
2016-10-07T10:16:55.247Z,1010.23
2016-10-07T10:17:55.129Z,1010.27
2016-10-07T10:18:55.357Z,1010.26
2016-10-07T10:19:55.235Z,1010.23
2016-10-07T10:20:55.391Z,1010.18
2016-10-07T10:21:55.712Z,1010.21
2016-10-07T10:22:55.482Z,1010.22
2016-10-07T10:23:55.418Z,1010.16
2016-10-07T10:24:55.496Z,1010.19
2016-10-07T10:25:55.531Z,1010.18
2016-10-07T10:26:55.891Z,1010.16
2016-10-07T10:27:55.578Z,1010.2
2016-10-07T10:28:55.822Z,1010.17
2016-10-07T10:29:55.641Z,1010.18
2016-10-07T10:30:55.512Z,1010.16
2016-10-07T10:31:55.939Z,1010.18
2016-10-07T10:32:55.565Z,1010.27
2016-10-07T10:33:55.544Z,1010.35
2016-10-07T10:34:55.743Z,1010.41
2016-10-07T10:35:55.819Z,1010.4
2016-10-07T10:36:55.554Z,1010.38
2016-10-07T10:37:55.694Z,1010.43
2016-10-07T10:38:56.314Z,1010.46
2016-10-07T10:39:55.838Z,1010.4
2016-10-07T10:40:56.107Z,1010.39
2016-10-07T10:41:55.705Z,1010.35
2016-10-07T10:42:55.733Z,1010.3
2016-10-07T10:43:56.342Z,1010.26
2016-10-07T10:44:55.835Z,1010.19
2016-10-07T10:45:55.874Z,1010.17
2016-10-07T10:46:55.941Z,1010.16
2016-10-07T10:47:55.913Z,1010.24
2016-10-07T10:48:56.297Z,1010.23
2016-10-07T10:49:55.844Z,1010.24
2016-10-07T10:50:55.884Z,1010.27
2016-10-07T10:51:56.075Z,1010.31
2016-10-07T10:52:56.244Z,1010.28
2016-10-07T10:53:56.937Z,1010.33
2016-10-07T10:54:56.106Z,1010.32
2016-10-07T10:55:56.376Z,1010.33
2016-10-07T10:56:56.069Z,1010.3
2016-10-07T10:57:56.414Z,1010.29
2016-10-07T10:58:56.181Z,1010.29
2016-10-07T10:59:56.125Z,1010.31
2016-10-07T11:00:56.259Z,1010.27
2016-10-07T11:01:56.503Z,1010.24
2016-10-07T11:02:56.572Z,1010.23
2016-10-07T11:03:56.173Z,1010.21
2016-10-07T11:04:56.569Z,1010.27
2016-10-07T11:05:56.569Z,1010.25
2016-10-07T11:06:56.425Z,1010.18
2016-10-07T11:07:56.661Z,1010.19
2016-10-07T11:08:56.649Z,1010.16
2016-10-07T11:09:56.598Z,1010.18
2016-10-07T11:10:56.467Z,1010.17
2016-10-07T11:11:56.471Z,1010.22
2016-10-07T11:12:56.450Z,1010.28
2016-10-07T11:13:56.595Z,1010.25
2016-10-07T11:14:56.804Z,1010.28
2016-10-07T11:15:56.474Z,1010.26
2016-10-07T11:16:56.655Z,1010.26
2016-10-07T11:17:56.502Z,1010.3
2016-10-07T11:18:56.560Z,1010.35
2016-10-07T11:19:56.520Z,1010.34
2016-10-07T11:20:56.770Z,1010.35
2016-10-07T11:21:57.144Z,1010.3
2016-10-07T11:22:56.892Z,1010.32
2016-10-07T11:23:57.137Z,1010.32
2016-10-07T11:24:56.898Z,1010.29
2016-10-07T11:25:57.070Z,1010.22
2016-10-07T11:26:56.957Z,1010.22
2016-10-07T11:27:56.697Z,1010.24
2016-10-07T11:28:56.798Z,1010.29
2016-10-07T11:29:56.802Z,1010.2
2016-10-07T11:30:56.702Z,1010.28
2016-10-07T11:31:56.810Z,1010.26
2016-10-07T11:32:56.994Z,1010.24
2016-10-07T11:33:56.977Z,1010.24
2016-10-07T11:34:57.527Z,1010.25
2016-10-07T11:35:57.195Z,1010.27
2016-10-07T11:36:56.994Z,1010.28
2016-10-07T11:37:56.863Z,1010.32
2016-10-07T11:38:57.113Z,1010.26
2016-10-07T11:39:56.987Z,1010.22
2016-10-07T11:40:57.996Z,1010.17
2016-10-07T11:41:57.203Z,1010.13
2016-10-07T11:42:57.470Z,1010.21
2016-10-07T11:43:56.992Z,1010.18
2016-10-07T11:44:57.285Z,1010.25
2016-10-07T11:45:57.049Z,1010.22
2016-10-07T11:46:57.068Z,1010.25
2016-10-07T11:47:57.347Z,1010.23
2016-10-07T11:48:57.076Z,1010.23
2016-10-07T11:49:57.053Z,1010.21
2016-10-07T11:50:57.251Z,1010.14
2016-10-07T11:51:57.335Z,1010.12
2016-10-07T11:52:57.771Z,1010.17
2016-10-07T11:53:57.208Z,1010.18
2016-10-07T11:54:57.363Z,1010.16
2016-10-07T11:55:57.538Z,1010.2
2016-10-07T11:56:57.587Z,1010.17
2016-10-07T11:57:57.331Z,1010.16
2016-10-07T11:58:57.185Z,1010.17
2016-10-07T11:59:57.329Z,1010.16
2016-10-07T12:00:57.525Z,1010.13
2016-10-07T12:01:57.485Z,1010.1
2016-10-07T12:02:57.618Z,1010.03
2016-10-07T12:03:57.639Z,1009.95
2016-10-07T12:04:58.257Z,1009.92
2016-10-07T12:05:58.288Z,1009.92
2016-10-07T12:06:57.846Z,1009.92
2016-10-07T12:07:57.431Z,1009.92
2016-10-07T12:08:58.047Z,1009.92
2016-10-07T12:09:58.074Z,1009.91